ORER

Erbil International Airport

Arbil, Iraq
TAF ORER 211700Z 2118/2218 27010KT 8000 NSC
Issued Valid From Valid To
Jun-21 @ 17:00 UTC
(an hour ago)
Jun-21 @ 18:00 UTC
(13 minutes ago)
Jun-22 @ 18:00 UTC
(in 24 hours)
Jun-21 @ 18:00 to Jun-22 @ 18:00
TAF ORER 211700Z 2118/2218 27010KT 8000 NSC
Wind Visibility Clouds
270° at 10 knots 7,998 meters
  • No significant clouds
TAF ORER 211700Z 2118/2218 27010KT 8000 NSC
Issued Jun-21 @ 17:00 UTC
(an hour ago)
Valid From Jun-21 @ 18:00 UTC
(13 minutes ago)
Valid To Jun-22 @ 18:00 UTC
(in 24 hours)
Jun-21 @ 18:00 - Jun-22 @ 18:00
Wind Visibility
270° at 10 knots 7,998 meters
Clouds
  • No significant clouds